sensor_id;sensor_type;location;lat;lon;timestamp;pressure;altitude;pressure_sealevel;temperature;humidity
67697;BME280;54486;51.442;6.778;2023-06-22T00:00:12;101567.63;;;22.33;65.60
67697;BME280;54486;51.442;6.778;2023-06-22T00:02:42;101585.41;;;22.31;65.38
67697;BME280;54486;51.442;6.778;2023-06-22T00:05:09;101587.25;;;22.30;65.71
67697;BME280;54486;51.442;6.778;2023-06-22T00:07:36;101581.94;;;22.30;65.96
67697;BME280;54486;51.442;6.778;2023-06-22T00:10:03;101580.97;;;22.31;66.40
67697;BME280;54486;51.442;6.778;2023-06-22T00:12:30;101578.41;;;22.30;66.43
67697;BME280;54486;51.442;6.778;2023-06-22T00:14:59;101575.78;;;22.28;66.20
67697;BME280;54486;51.442;6.778;2023-06-22T00:17:26;101586.44;;;22.28;66.71
67697;BME280;54486;51.442;6.778;2023-06-22T00:19:53;101582.13;;;22.26;66.63
67697;BME280;54486;51.442;6.778;2023-06-22T00:22:22;101583.25;;;22.20;67.26
67697;BME280;54486;51.442;6.778;2023-06-22T00:24:56;101572.63;;;22.20;67.17
67697;BME280;54486;51.442;6.778;2023-06-22T00:27:23;101578.06;;;22.17;67.85
67697;BME280;54486;51.442;6.778;2023-06-22T00:29:49;101582.63;;;22.13;66.94
67697;BME280;54486;51.442;6.778;2023-06-22T00:32:17;101580.84;;;22.14;67.88
67697;BME280;54486;51.442;6.778;2023-06-22T00:34:44;101578.31;;;22.11;67.98
67697;BME280;54486;51.442;6.778;2023-06-22T00:37:11;101580.16;;;22.09;68.57
67697;BME280;54486;51.442;6.778;2023-06-22T00:39:38;101583.78;;;22.08;68.33
67697;BME280;54486;51.442;6.778;2023-06-22T00:42:06;101574.06;;;22.07;68.42
67697;BME280;54486;51.442;6.778;2023-06-22T00:44:33;101569.78;;;22.03;68.20
67697;BME280;54486;51.442;6.778;2023-06-22T00:47:00;101570.72;;;22.02;68.42
67697;BME280;54486;51.442;6.778;2023-06-22T00:49:28;101571.66;;;22.01;68.72
67697;BME280;54486;51.442;6.778;2023-06-22T00:51:57;101571.78;;;21.98;69.88
67697;BME280;54486;51.442;6.778;2023-06-22T00:54:24;101563.88;;;21.96;69.28
67697;BME280;54486;51.442;6.778;2023-06-22T00:56:53;101572.06;;;21.92;69.46
67697;BME280;54486;51.442;6.778;2023-06-22T00:59:23;101573.13;;;21.86;69.96
67697;BME280;54486;51.442;6.778;2023-06-22T01:01:51;101564.59;;;21.78;70.26
67697;BME280;54486;51.442;6.778;2023-06-22T01:04:18;101561.88;;;21.80;69.73
67697;BME280;54486;51.442;6.778;2023-06-22T01:06:55;101563.75;;;21.78;70.16
67697;BME280;54486;51.442;6.778;2023-06-22T01:09:31;101551.50;;;21.74;70.66
67697;BME280;54486;51.442;6.778;2023-06-22T01:12:06;101562.25;;;21.71;70.69
67697;BME280;54486;51.442;6.778;2023-06-22T01:14:41;101561.50;;;21.67;70.59
67697;BME280;54486;51.442;6.778;2023-06-22T01:17:11;101555.44;;;21.63;71.22
67697;BME280;54486;51.442;6.778;2023-06-22T01:19:50;101546.69;;;21.61;71.27
67697;BME280;54486;51.442;6.778;2023-06-22T01:22:25;101546.81;;;21.58;71.46
67697;BME280;54486;51.442;6.778;2023-06-22T01:30:10;101552.50;;;21.49;72.20
67697;BME280;54486;51.442;6.778;2023-06-22T01:32:39;101548.94;;;21.50;72.49
67697;BME280;54486;51.442;6.778;2023-06-22T01:35:10;101541.00;;;21.49;71.87
67697;BME280;54486;51.442;6.778;2023-06-22T01:37:38;101548.25;;;21.45;72.47
67697;BME280;54486;51.442;6.778;2023-06-22T01:40:06;101542.25;;;21.40;72.54
67697;BME280;54486;51.442;6.778;2023-06-22T01:42:35;101532.56;;;21.39;72.67
67697;BME280;54486;51.442;6.778;2023-06-22T01:45:04;101533.47;;;21.38;72.76
67697;BME280;54486;51.442;6.778;2023-06-22T01:47:33;101542.38;;;21.37;72.85
67697;BME280;54486;51.442;6.778;2023-06-22T01:50:03;101535.44;;;21.33;73.39
67697;BME280;54486;51.442;6.778;2023-06-22T01:52:31;101538.16;;;21.32;73.40
67697;BME280;54486;51.442;6.778;2023-06-22T01:55:02;101544.22;;;21.35;73.97
67697;BME280;54486;51.442;6.778;2023-06-22T01:57:29;101543.41;;;21.33;74.12
67697;BME280;54486;51.442;6.778;2023-06-22T02:00:02;101542.50;;;21.34;73.58
67697;BME280;54486;51.442;6.778;2023-06-22T02:02:34;101536.25;;;21.35;74.02
67697;BME280;54486;51.442;6.778;2023-06-22T02:05:06;101537.19;;;21.34;74.30
67697;BME280;54486;51.442;6.778;2023-06-22T02:07:39;101535.44;;;21.33;74.36
67697;BME280;54486;51.442;6.778;2023-06-22T02:10:09;101539.84;;;21.34;74.27
67697;BME280;54486;51.442;6.778;2023-06-22T02:12:41;101537.31;;;21.31;74.24
67697;BME280;54486;51.442;6.778;2023-06-22T02:15:09;101536.31;;;21.34;74.15
67697;BME280;54486;51.442;6.778;2023-06-22T02:17:37;101531.06;;;21.32;74.66
67697;BME280;54486;51.442;6.778;2023-06-22T02:20:04;101525.88;;;21.29;74.51
67697;BME280;54486;51.442;6.778;2023-06-22T02:22:34;101534.72;;;21.30;74.27
67697;BME280;54486;51.442;6.778;2023-06-22T02:25:01;101532.13;;;21.28;74.47
67697;BME280;54486;51.442;6.778;2023-06-22T02:27:29;101531.19;;;21.29;74.29
67697;BME280;54486;51.442;6.778;2023-06-22T02:29:57;101528.66;;;21.26;75.14
67697;BME280;54486;51.442;6.778;2023-06-22T02:32:24;101523.34;;;21.26;75.05
67697;BME280;54486;51.442;6.778;2023-06-22T02:34:52;101527.84;;;21.24;75.39
67697;BME280;54486;51.442;6.778;2023-06-22T02:37:19;101521.84;;;21.19;75.43
67697;BME280;54486;51.442;6.778;2023-06-22T02:39:46;101522.84;;;21.17;75.38
67697;BME280;54486;51.442;6.778;2023-06-22T02:42:14;101523.84;;;21.14;76.25
67697;BME280;54486;51.442;6.778;2023-06-22T02:44:41;101526.59;;;21.11;76.00
67697;BME280;54486;51.442;6.778;2023-06-22T02:47:09;101520.50;;;21.09;75.73
67697;BME280;54486;51.442;6.778;2023-06-22T02:49:36;101517.00;;;21.07;76.58
67697;BME280;54486;51.442;6.778;2023-06-22T02:52:03;101513.53;;;21.05;76.89
67697;BME280;54486;51.442;6.778;2023-06-22T02:54:30;101511.88;;;21.02;76.99
67697;BME280;54486;51.442;6.778;2023-06-22T02:56:58;101511.94;;;21.01;77.15
67697;BME280;54486;51.442;6.778;2023-06-22T02:59:25;101512.03;;;20.98;77.60
67697;BME280;54486;51.442;6.778;2023-06-22T03:01:52;101514.75;;;20.96;77.20
67697;BME280;54486;51.442;6.778;2023-06-22T03:04:20;101510.31;;;20.97;77.24
67697;BME280;54486;51.442;6.778;2023-06-22T03:06:47;101509.56;;;20.93;76.86
67697;BME280;54486;51.442;6.778;2023-06-22T03:09:18;101503.34;;;20.94;77.08
67697;BME280;54486;51.442;6.778;2023-06-22T03:11:45;101505.25;;;20.91;77.95
67697;BME280;54486;51.442;6.778;2023-06-22T03:14:12;101497.41;;;20.88;78.36
67697;BME280;54486;51.442;6.778;2023-06-22T03:16:40;101499.25;;;20.86;77.79
67697;BME280;54486;51.442;6.778;2023-06-22T03:19:08;101496.66;;;20.84;77.93
67697;BME280;54486;51.442;6.778;2023-06-22T03:21:37;101498.53;;;20.81;78.28
67697;BME280;54486;51.442;6.778;2023-06-22T03:24:06;101496.97;;;20.77;78.46
67697;BME280;54486;51.442;6.778;2023-06-22T03:26:34;101492.59;;;20.74;79.40
67697;BME280;54486;51.442;6.778;2023-06-22T03:29:01;101490.91;;;20.73;79.48
67697;BME280;54486;51.442;6.778;2023-06-22T03:31:29;101490.16;;;20.70;79.79
67697;BME280;54486;51.442;6.778;2023-06-22T03:33:56;101483.97;;;20.69;79.48
67697;BME280;54486;51.442;6.778;2023-06-22T03:36:23;101483.09;;;20.69;79.90
67697;BME280;54486;51.442;6.778;2023-06-22T03:38:51;101475.16;;;20.69;79.87
67697;BME280;54486;51.442;6.778;2023-06-22T03:41:19;101478.75;;;20.68;80.03
67697;BME280;54486;51.442;6.778;2023-06-22T03:43:46;101472.63;;;20.66;79.99
67697;BME280;54486;51.442;6.778;2023-06-22T03:46:14;101472.63;;;20.66;80.58
67697;BME280;54486;51.442;6.778;2023-06-22T03:48:41;101463.88;;;20.64;80.72
67697;BME280;54486;51.442;6.778;2023-06-22T03:51:09;101463.78;;;20.65;79.88
67697;BME280;54486;51.442;6.778;2023-06-22T03:53:36;101468.22;;;20.65;80.81
67697;BME280;54486;51.442;6.778;2023-06-22T03:56:03;101456.69;;;20.66;80.77
67697;BME280;54486;51.442;6.778;2023-06-22T03:58:31;101462.88;;;20.66;80.70
67697;BME280;54486;51.442;6.778;2023-06-22T04:01:00;101458.44;;;20.67;80.19
67697;BME280;54486;51.442;6.778;2023-06-22T04:03:26;101465.38;;;20.71;80.39
67697;BME280;54486;51.442;6.778;2023-06-22T04:05:54;101461.78;;;20.72;80.48
67697;BME280;54486;51.442;6.778;2023-06-22T04:08:22;101451.16;;;20.72;81.02
67697;BME280;54486;51.442;6.778;2023-06-22T04:10:49;101458.09;;;20.76;81.00
67697;BME280;54486;51.442;6.778;2023-06-22T04:13:16;101451.75;;;20.80;80.79
67697;BME280;54486;51.442;6.778;2023-06-22T04:15:43;101455.88;;;20.87;81.00
67697;BME280;54486;51.442;6.778;2023-06-22T04:18:10;101465.41;;;20.92;80.83
67697;BME280;54486;51.442;6.778;2023-06-22T04:20:38;101471.31;;;20.99;80.11
67697;BME280;54486;51.442;6.778;2023-06-22T04:23:05;101462.25;;;21.04;79.72
67697;BME280;54486;51.442;6.778;2023-06-22T04:25:32;101454.94;;;21.11;79.15
67697;BME280;54486;51.442;6.778;2023-06-22T04:27:59;101456.56;;;21.15;78.79
67697;BME280;54486;51.442;6.778;2023-06-22T04:30:26;101462.53;;;21.20;78.97
67697;BME280;54486;51.442;6.778;2023-06-22T04:32:53;101468.63;;;21.22;78.37
67697;BME280;54486;51.442;6.778;2023-06-22T04:35:25;101467.72;;;21.23;78.26
67697;BME280;54486;51.442;6.778;2023-06-22T04:37:52;101465.94;;;21.24;78.03
67697;BME280;54486;51.442;6.778;2023-06-22T04:40:23;101462.41;;;21.23;78.82
67697;BME280;54486;51.442;6.778;2023-06-22T04:42:51;101463.31;;;21.22;78.33
67697;BME280;54486;51.442;6.778;2023-06-22T04:45:21;101461.50;;;21.24;78.58
67697;BME280;54486;51.442;6.778;2023-06-22T04:47:48;101450.88;;;21.24;78.86
67697;BME280;54486;51.442;6.778;2023-06-22T04:50:15;101458.00;;;21.22;78.27
67697;BME280;54486;51.442;6.778;2023-06-22T04:52:43;101466.81;;;21.24;78.52
67697;BME280;54486;51.442;6.778;2023-06-22T04:55:10;101458.84;;;21.24;78.77
67697;BME280;54486;51.442;6.778;2023-06-22T04:57:40;101463.19;;;21.25;78.51
67697;BME280;54486;51.442;6.778;2023-06-22T05:00:08;101459.75;;;21.23;78.10
67697;BME280;54486;51.442;6.778;2023-06-22T05:02:41;101461.50;;;21.24;77.96
67697;BME280;54486;51.442;6.778;2023-06-22T05:05:09;101471.16;;;21.25;77.79
67697;BME280;54486;51.442;6.778;2023-06-22T05:07:43;101462.34;;;21.25;77.78
67697;BME280;54486;51.442;6.778;2023-06-22T05:10:11;101461.50;;;21.24;78.20
67697;BME280;54486;51.442;6.778;2023-06-22T05:12:40;101456.19;;;21.24;78.38
67697;BME280;54486;51.442;6.778;2023-06-22T05:15:08;101456.19;;;21.24;78.21
67697;BME280;54486;51.442;6.778;2023-06-22T05:17:38;101457.06;;;21.25;78.27
67697;BME280;54486;51.442;6.778;2023-06-22T05:20:12;101464.94;;;21.26;78.40
67697;BME280;54486;51.442;6.778;2023-06-22T05:22:41;101464.94;;;21.26;78.20
67697;BME280;54486;51.442;6.778;2023-06-22T05:25:10;101457.78;;;21.28;77.85
67697;BME280;54486;51.442;6.778;2023-06-22T05:27:39;101459.50;;;21.29;78.22
67697;BME280;54486;51.442;6.778;2023-06-22T05:30:07;101457.66;;;21.31;77.98
67697;BME280;54486;51.442;6.778;2023-06-22T05:32:36;101462.97;;;21.31;78.39
67697;BME280;54486;51.442;6.778;2023-06-22T05:35:04;101470.94;;;21.31;78.35
67697;BME280;54486;51.442;6.778;2023-06-22T05:37:31;101468.16;;;21.34;77.73
67697;BME280;54486;51.442;6.778;2023-06-22T05:39:58;101463.59;;;21.38;78.18
67697;BME280;54486;51.442;6.778;2023-06-22T05:42:25;101475.06;;;21.38;77.63
67697;BME280;54486;51.442;6.778;2023-06-22T05:44:53;101478.53;;;21.40;78.08
67697;BME280;54486;51.442;6.778;2023-06-22T05:47:20;101489.91;;;21.44;81.15
67697;BME280;54486;51.442;6.778;2023-06-22T05:49:50;101482.97;;;21.40;80.41
67697;BME280;54486;51.442;6.778;2023-06-22T05:52:17;101497.25;;;21.37;81.74
67697;BME280;54486;51.442;6.778;2023-06-22T05:54:44;101501.84;;;21.32;83.65
67697;BME280;54486;51.442;6.778;2023-06-22T05:57:11;101508.16;;;21.30;84.10
67697;BME280;54486;51.442;6.778;2023-06-22T05:59:40;101500.38;;;21.25;81.18
67697;BME280;54486;51.442;6.778;2023-06-22T06:02:08;101501.22;;;21.26;83.25
67697;BME280;54486;51.442;6.778;2023-06-22T06:04:35;101500.38;;;21.25;83.97
67697;BME280;54486;51.442;6.778;2023-06-22T06:07:03;101492.53;;;21.22;84.53
67697;BME280;54486;51.442;6.778;2023-06-22T06:09:30;101499.66;;;21.22;84.75
67697;BME280;54486;51.442;6.778;2023-06-22T06:11:57;101497.13;;;21.19;85.17
67697;BME280;54486;51.442;6.778;2023-06-22T06:14:24;101498.91;;;21.18;85.77
67697;BME280;54486;51.442;6.778;2023-06-22T06:16:51;101499.94;;;21.14;85.09
67697;BME280;54486;51.442;6.778;2023-06-22T06:19:18;101491.31;;;21.09;86.18
67697;BME280;54486;51.442;6.778;2023-06-22T06:21:45;101495.75;;;21.07;88.96
67697;BME280;54486;51.442;6.778;2023-06-22T06:24:13;101490.69;;;21.01;87.24
67697;BME280;54486;51.442;6.778;2023-06-22T06:26:40;101500.75;;;20.93;87.47
67697;BME280;54486;51.442;6.778;2023-06-22T06:29:09;101505.34;;;20.88;87.99
67697;BME280;54486;51.442;6.778;2023-06-22T06:31:36;101500.16;;;20.85;89.10
67697;BME280;54486;51.442;6.778;2023-06-22T06:34:03;101500.41;;;20.79;90.32
67697;BME280;54486;51.442;6.778;2023-06-22T06:36:32;101494.53;;;20.71;90.20
67697;BME280;54486;51.442;6.778;2023-06-22T06:39:00;101489.25;;;20.71;89.79
67697;BME280;54486;51.442;6.778;2023-06-22T06:41:27;101484.84;;;20.70;90.42
67697;BME280;54486;51.442;6.778;2023-06-22T06:43:55;101486.78;;;20.65;91.02
67697;BME280;54486;51.442;6.778;2023-06-22T06:46:22;101480.66;;;20.64;92.20
67697;BME280;54486;51.442;6.778;2023-06-22T06:48:49;101477.00;;;20.67;92.15
67697;BME280;54486;51.442;6.778;2023-06-22T06:51:17;101476.09;;;20.68;90.63
67697;BME280;54486;51.442;6.778;2023-06-22T06:53:44;101469.72;;;20.72;91.32
67697;BME280;54486;51.442;6.778;2023-06-22T06:56:11;101465.06;;;20.78;91.92
67697;BME280;54486;51.442;6.778;2023-06-22T06:58:42;101462.13;;;20.86;92.09
67697;BME280;54486;51.442;6.778;2023-06-22T07:01:09;101467.84;;;20.97;91.52
67697;BME280;54486;51.442;6.778;2023-06-22T07:03:36;101464.03;;;21.04;89.77
67697;BME280;54486;51.442;6.778;2023-06-22T07:06:04;101460.25;;;21.11;88.36
67697;BME280;54486;51.442;6.778;2023-06-22T07:08:31;101459.75;;;21.23;87.78
67697;BME280;54486;51.442;6.778;2023-06-22T07:10:58;101452.59;;;21.25;86.63
67697;BME280;54486;51.442;6.778;2023-06-22T07:13:25;101454.06;;;21.32;87.71
67697;BME280;54486;51.442;6.778;2023-06-22T07:15:52;101447.59;;;21.39;87.37
67697;BME280;54486;51.442;6.778;2023-06-22T07:18:19;101451.72;;;21.46;86.84
67697;BME280;54486;51.442;6.778;2023-06-22T07:20:46;101442.84;;;21.47;85.88
67697;BME280;54486;51.442;6.778;2023-06-22T07:23:14;101444.53;;;21.48;85.52
67697;BME280;54486;51.442;6.778;2023-06-22T07:25:41;101432.09;;;21.50;85.46
67697;BME280;54486;51.442;6.778;2023-06-22T07:28:09;101430.09;;;21.55;85.69
67697;BME280;54486;51.442;6.778;2023-06-22T07:30:36;101428.81;;;21.64;85.74
67697;BME280;54486;51.442;6.778;2023-06-22T07:33:03;101439.91;;;21.74;87.06
67697;BME280;54486;51.442;6.778;2023-06-22T07:35:32;101443.25;;;21.79;92.27
67697;BME280;54486;51.442;6.778;2023-06-22T07:38:00;101453.88;;;21.79;90.70
67697;BME280;54486;51.442;6.778;2023-06-22T07:40:31;101455.84;;;21.74;89.26
67697;BME280;54486;51.442;6.778;2023-06-22T07:42:58;101453.00;;;21.78;90.07
67697;BME280;54486;51.442;6.778;2023-06-22T07:45:25;101455.84;;;21.74;91.12
67697;BME280;54486;51.442;6.778;2023-06-22T07:47:52;101458.47;;;21.75;91.47
67697;BME280;54486;51.442;6.778;2023-06-22T07:50:19;101437.38;;;21.71;91.82
67697;BME280;54486;51.442;6.778;2023-06-22T07:52:47;101438.38;;;21.68;93.43
67697;BME280;54486;51.442;6.778;2023-06-22T07:55:14;101429.56;;;21.68;93.50
67697;BME280;54486;51.442;6.778;2023-06-22T07:57:41;101429.69;;;21.64;96.22
67697;BME280;54486;51.442;6.778;2023-06-22T08:00:10;101424.50;;;21.61;96.94
67697;BME280;54486;51.442;6.778;2023-06-22T08:02:42;101421.13;;;21.58;95.68
67697;BME280;54486;51.442;6.778;2023-06-22T08:05:11;101416.66;;;21.58;95.39
67697;BME280;54486;51.442;6.778;2023-06-22T08:07:41;101409.56;;;21.59;94.20
67697;BME280;54486;51.442;6.778;2023-06-22T08:10:11;101404.13;;;21.62;94.33
67697;BME280;54486;51.442;6.778;2023-06-22T08:12:42;101387.31;;;21.61;94.68
67697;BME280;54486;51.442;6.778;2023-06-22T08:15:09;101378.56;;;21.59;91.45
67697;BME280;54486;51.442;6.778;2023-06-22T08:17:37;101366.06;;;21.61;93.61
67697;BME280;54486;51.442;6.778;2023-06-22T08:20:06;101363.28;;;21.64;92.93
67697;BME280;54486;51.442;6.778;2023-06-22T08:22:36;101356.00;;;21.70;92.97
67697;BME280;54486;51.442;6.778;2023-06-22T08:25:04;101349.44;;;21.77;93.02
67697;BME280;54486;51.442;6.778;2023-06-22T08:27:31;101338.53;;;21.83;91.64
67697;BME280;54486;51.442;6.778;2023-06-22T08:30:02;101333.97;;;21.86;90.35
67697;BME280;54486;51.442;6.778;2023-06-22T08:32:30;101334.66;;;21.91;90.05
67697;BME280;54486;51.442;6.778;2023-06-22T08:34:57;101329.25;;;21.93;91.43
67697;BME280;54486;51.442;6.778;2023-06-22T08:37:24;101326.69;;;21.91;89.83
67697;BME280;54486;51.442;6.778;2023-06-22T08:39:59;101337.22;;;21.93;91.00
67697;BME280;54486;51.442;6.778;2023-06-22T08:42:26;101343.38;;;21.95;90.58
67697;BME280;54486;51.442;6.778;2023-06-22T08:44:53;101350.38;;;21.96;89.23
67697;BME280;54486;51.442;6.778;2023-06-22T08:47:21;101352.84;;;22.00;90.42
67697;BME280;54486;51.442;6.778;2023-06-22T08:49:50;101354.59;;;22.01;88.35
67697;BME280;54486;51.442;6.778;2023-06-22T08:52:18;101349.97;;;22.05;88.82
67697;BME280;54486;51.442;6.778;2023-06-22T08:54:47;101341.06;;;22.06;87.00
67697;BME280;54486;51.442;6.778;2023-06-22T08:57:14;101338.06;;;22.13;88.38
67697;BME280;54486;51.442;6.778;2023-06-22T08:59:43;101337.78;;;22.20;87.53
67697;BME280;54486;51.442;6.778;2023-06-22T09:02:10;101334.63;;;22.30;87.91
67697;BME280;54486;51.442;6.778;2023-06-22T09:04:37;101332.31;;;22.41;87.27
67697;BME280;54486;51.442;6.778;2023-06-22T09:07:05;101327.50;;;22.49;86.56
67697;BME280;54486;51.442;6.778;2023-06-22T09:09:32;101329.72;;;22.58;85.84
67697;BME280;54486;51.442;6.778;2023-06-22T09:11:59;101326.75;;;22.64;86.05
67697;BME280;54486;51.442;6.778;2023-06-22T09:14:26;101330.00;;;22.71;85.05
67697;BME280;54486;51.442;6.778;2023-06-22T09:16:53;101330.56;;;22.78;83.82
67697;BME280;54486;51.442;6.778;2023-06-22T09:19:20;101331.16;;;22.84;83.33
67697;BME280;54486;51.442;6.778;2023-06-22T09:21:47;101327.94;;;22.95;82.87
67697;BME280;54486;51.442;6.778;2023-06-22T09:24:14;101336.88;;;23.11;82.53
67697;BME280;54486;51.442;6.778;2023-06-22T09:26:41;101344.22;;;23.23;81.55
67697;BME280;54486;51.442;6.778;2023-06-22T09:29:09;101340.31;;;23.30;80.44
67697;BME280;54486;51.442;6.778;2023-06-22T09:31:36;101340.53;;;23.44;80.29
67697;BME280;54486;51.442;6.778;2023-06-22T09:34:03;101330.00;;;23.58;80.09
67697;BME280;54486;51.442;6.778;2023-06-22T09:36:30;101329.03;;;23.77;79.43
67697;BME280;54486;51.442;6.778;2023-06-22T09:38:57;101324.44;;;23.96;78.50
67697;BME280;54486;51.442;6.778;2023-06-22T09:41:25;101329.88;;;24.10;77.18
67697;BME280;54486;51.442;6.778;2023-06-22T09:43:52;101328.47;;;24.20;76.34
67697;BME280;54486;51.442;6.778;2023-06-22T09:46:22;101317.28;;;24.29;76.48
67697;BME280;54486;51.442;6.778;2023-06-22T09:48:52;101323.66;;;24.42;76.50
67697;BME280;54486;51.442;6.778;2023-06-22T09:51:19;101318.50;;;24.55;76.72
67697;BME280;54486;51.442;6.778;2023-06-22T09:53:48;101317.78;;;24.67;75.49
67697;BME280;54486;51.442;6.778;2023-06-22T09:56:15;101320.53;;;24.81;74.54
67697;BME280;54486;51.442;6.778;2023-06-22T09:58:43;101318.81;;;24.96;74.11
67697;BME280;54486;51.442;6.778;2023-06-22T10:01:12;101309.31;;;25.06;73.59
67697;BME280;54486;51.442;6.778;2023-06-22T10:03:42;101305.16;;;25.16;73.84
67697;BME280;54486;51.442;6.778;2023-06-22T10:06:11;101303.03;;;25.21;72.64
67697;BME280;54486;51.442;6.778;2023-06-22T10:08:38;101304.91;;;25.35;71.67
67697;BME280;54486;51.442;6.778;2023-06-22T10:11:06;101296.06;;;25.48;72.36
67697;BME280;54486;51.442;6.778;2023-06-22T10:13:33;101291.91;;;25.58;71.07
67697;BME280;54486;51.442;6.778;2023-06-22T10:16:00;101294.47;;;25.60;70.68
67697;BME280;54486;51.442;6.778;2023-06-22T10:18:27;101290.28;;;25.70;70.04
67697;BME280;54486;51.442;6.778;2023-06-22T10:20:54;101284.66;;;25.74;69.61
67697;BME280;54486;51.442;6.778;2023-06-22T10:23:22;101279.09;;;25.92;70.31
67697;BME280;54486;51.442;6.778;2023-06-22T10:25:49;101284.03;;;25.98;68.55
67697;BME280;54486;51.442;6.778;2023-06-22T10:28:16;101278.50;;;26.15;69.12
67697;BME280;54486;51.442;6.778;2023-06-22T10:30:43;101272.09;;;26.32;67.68
67697;BME280;54486;51.442;6.778;2023-06-22T10:33:11;101275.13;;;26.40;67.14
67697;BME280;54486;51.442;6.778;2023-06-22T10:35:38;101273.97;;;26.44;66.77
67697;BME280;54486;51.442;6.778;2023-06-22T10:38:06;101274.06;;;26.42;67.54
67697;BME280;54486;51.442;6.778;2023-06-22T10:40:33;101276.72;;;26.42;68.04
67697;BME280;54486;51.442;6.778;2023-06-22T10:43:00;101280.53;;;26.52;66.65
67697;BME280;54486;51.442;6.778;2023-06-22T10:45:27;101289.34;;;26.54;65.36
67697;BME280;54486;51.442;6.778;2023-06-22T10:47:56;101292.75;;;26.56;65.72
67697;BME280;54486;51.442;6.778;2023-06-22T10:50:23;101289.34;;;26.54;65.49
67697;BME280;54486;51.442;6.778;2023-06-22T10:52:54;101298.72;;;26.47;65.67
67697;BME280;54486;51.442;6.778;2023-06-22T10:55:25;101303.44;;;26.29;67.12
67697;BME280;54486;51.442;6.778;2023-06-22T10:57:52;101315.03;;;26.16;67.04
67697;BME280;54486;51.442;6.778;2023-06-22T11:00:19;101308.03;;;25.99;67.43
67697;BME280;54486;51.442;6.778;2023-06-22T11:02:47;101310.69;;;25.85;67.82
67697;BME280;54486;51.442;6.778;2023-06-22T11:05:15;101308.91;;;25.71;68.94
67697;BME280;54486;51.442;6.778;2023-06-22T11:07:43;101312.41;;;25.58;68.67
67697;BME280;54486;51.442;6.778;2023-06-22T11:10:15;101308.66;;;25.46;68.86
67697;BME280;54486;51.442;6.778;2023-06-22T11:12:43;101305.56;;;25.38;70.16
67697;BME280;54486;51.442;6.778;2023-06-22T11:15:11;101297.94;;;25.32;70.48
67697;BME280;54486;51.442;6.778;2023-06-22T11:17:39;101298.38;;;25.24;71.51
67697;BME280;54486;51.442;6.778;2023-06-22T11:20:07;101298.06;;;25.15;73.83
67697;BME280;54486;51.442;6.778;2023-06-22T11:22:39;101311.03;;;25.07;74.86
67697;BME280;54486;51.442;6.778;2023-06-22T11:25:07;101308.44;;;25.05;76.80
67697;BME280;54486;51.442;6.778;2023-06-22T11:27:35;101297.44;;;24.96;77.59
67697;BME280;54486;51.442;6.778;2023-06-22T11:30:02;101298.78;;;24.89;83.11
67697;BME280;54486;51.442;6.778;2023-06-22T11:32:32;101300.75;;;24.69;84.03
67697;BME280;54486;51.442;6.778;2023-06-22T11:34:59;101314.72;;;24.43;85.40
67697;BME280;54486;51.442;6.778;2023-06-22T11:37:26;101308.69;;;24.24;87.80
67697;BME280;54486;51.442;6.778;2023-06-22T11:39:53;101317.38;;;23.95;89.53
67697;BME280;54486;51.442;6.778;2023-06-22T11:42:33;101326.06;;;23.65;94.02
67697;BME280;54486;51.442;6.778;2023-06-22T11:45:01;101330.63;;;23.46;95.68
67697;BME280;54486;51.442;6.778;2023-06-22T11:47:29;101335.97;;;23.46;97.52
67697;BME280;54486;51.442;6.778;2023-06-22T11:49:56;101298.69;;;23.46;99.51
67697;BME280;54486;51.442;6.778;2023-06-22T11:52:25;101278.28;;;23.45;100.00
67697;BME280;54486;51.442;6.778;2023-06-22T11:54:53;101261.72;;;23.40;100.00
67697;BME280;54486;51.442;6.778;2023-06-22T11:57:20;101247.75;;;23.35;100.00
67697;BME280;54486;51.442;6.778;2023-06-22T11:59:47;101235.69;;;23.28;100.00
67697;BME280;54486;51.442;6.778;2023-06-22T12:02:14;101220.03;;;23.22;100.00
67697;BME280;54486;51.442;6.778;2023-06-22T12:04:41;101200.75;;;23.17;100.00
67697;BME280;54486;51.442;6.778;2023-06-22T12:07:10;101200.31;;;23.09;100.00
67697;BME280;54486;51.442;6.778;2023-06-22T12:09:37;101210.31;;;23.04;100.00
67697;BME280;54486;51.442;6.778;2023-06-22T12:12:05;101201.28;;;22.91;100.00
67697;BME280;54486;51.442;6.778;2023-06-22T12:14:33;101204.72;;;22.76;100.00
67697;BME280;54486;51.442;6.778;2023-06-22T12:17:00;101197.53;;;22.78;100.00
67697;BME280;54486;51.442;6.778;2023-06-22T12:19:28;101192.19;;;22.78;100.00
67697;BME280;54486;51.442;6.778;2023-06-22T12:21:56;101195.31;;;22.86;100.00
67697;BME280;54486;51.442;6.778;2023-06-22T12:24:23;101197.06;;;22.87;100.00
67697;BME280;54486;51.442;6.778;2023-06-22T12:26:50;101204.56;;;22.96;100.00
67697;BME280;54486;51.442;6.778;2023-06-22T12:29:19;101195.59;;;23.14;100.00
67697;BME280;54486;51.442;6.778;2023-06-22T12:31:46;101173.41;;;23.48;100.00
67697;BME280;54486;51.442;6.778;2023-06-22T12:34:13;101168.28;;;23.76;100.00
67697;BME280;54486;51.442;6.778;2023-06-22T12:36:40;101156.31;;;23.99;100.00
67697;BME280;54486;51.442;6.778;2023-06-22T12:39:07;101142.28;;;24.11;100.00
67697;BME280;54486;51.442;6.778;2023-06-22T12:41:34;101129.66;;;24.14;100.00
67697;BME280;54486;51.442;6.778;2023-06-22T12:44:02;101140.03;;;24.19;100.00
67697;BME280;54486;51.442;6.778;2023-06-22T12:46:29;101147.53;;;24.12;100.00
67697;BME280;54486;51.442;6.778;2023-06-22T12:49:04;101137.84;;;24.11;100.00
67697;BME280;54486;51.442;6.778;2023-06-22T12:51:31;101128.03;;;24.12;100.00
67697;BME280;54486;51.442;6.778;2023-06-22T12:53:58;101126.88;;;24.16;100.00
67697;BME280;54486;51.442;6.778;2023-06-22T12:56:25;101126.81;;;24.17;100.00
67697;BME280;54486;51.442;6.778;2023-06-22T12:58:52;101133.78;;;24.20;100.00